sensor_id;sensor_type;location;lat;lon;timestamp;pressure;altitude;pressure_sealevel;temperature
12430;BMP280;6279;42.192;24.326;2023-11-18T00:00:07;98176.53;;;10.23
12430;BMP280;6279;42.192;24.326;2023-11-18T00:02:38;98182.72;;;10.22
12430;BMP280;6279;42.192;24.326;2023-11-18T00:05:04;98176.25;;;10.18
12430;BMP280;6279;42.192;24.326;2023-11-18T00:07:29;98185.31;;;10.22
12430;BMP280;6279;42.192;24.326;2023-11-18T00:09:57;98178.34;;;10.23
12430;BMP280;6279;42.192;24.326;2023-11-18T00:12:22;98186.13;;;10.23
12430;BMP280;6279;42.192;24.326;2023-11-18T00:14:49;98168.56;;;10.25
12430;BMP280;6279;42.192;24.326;2023-11-18T00:17:14;98161.75;;;10.24
12430;BMP280;6279;42.192;24.326;2023-11-18T00:19:41;98166.16;;;10.23
12430;BMP280;6279;42.192;24.326;2023-11-18T00:22:08;98163.78;;;10.28
12430;BMP280;6279;42.192;24.326;2023-11-18T00:24:33;98168.97;;;10.28
12430;BMP280;6279;42.192;24.326;2023-11-18T00:27:01;98167.13;;;10.43
12430;BMP280;6279;42.192;24.326;2023-11-18T00:29:34;98169.97;;;10.48
12430;BMP280;6279;42.192;24.326;2023-11-18T00:32:03;98166.81;;;10.52
12430;BMP280;6279;42.192;24.326;2023-11-18T00:34:29;98159.47;;;10.55
12430;BMP280;6279;42.192;24.326;2023-11-18T00:36:55;98171.31;;;10.64
12430;BMP280;6279;42.192;24.326;2023-11-18T00:39:24;98177.38;;;10.71
12430;BMP280;6279;42.192;24.326;2023-11-18T00:41:50;98186.34;;;10.69
12430;BMP280;6279;42.192;24.326;2023-11-18T00:44:15;98195.34;;;10.66
12430;BMP280;6279;42.192;24.326;2023-11-18T00:46:41;98190.75;;;10.68
12430;BMP280;6279;42.192;24.326;2023-11-18T00:49:06;98191.81;;;10.73
12430;BMP280;6279;42.192;24.326;2023-11-18T00:51:32;98190.88;;;10.81
12430;BMP280;6279;42.192;24.326;2023-11-18T00:53:58;98184.25;;;10.78
12430;BMP280;6279;42.192;24.326;2023-11-18T00:56:26;98173.84;;;10.78
12430;BMP280;6279;42.192;24.326;2023-11-18T00:58:51;98191.44;;;10.76
12430;BMP280;6279;42.192;24.326;2023-11-18T01:01:17;98199.06;;;10.78
12430;BMP280;6279;42.192;24.326;2023-11-18T01:03:46;98196.66;;;10.76
12430;BMP280;6279;42.192;24.326;2023-11-18T01:06:12;98207.06;;;10.76
12430;BMP280;6279;42.192;24.326;2023-11-18T01:08:37;98209.47;;;10.78
12430;BMP280;6279;42.192;24.326;2023-11-18T01:11:03;98215.75;;;10.69
12430;BMP280;6279;42.192;24.326;2023-11-18T01:13:32;98204.63;;;10.75
12430;BMP280;6279;42.192;24.326;2023-11-18T01:15:57;98210.38;;;10.71
12430;BMP280;6279;42.192;24.326;2023-11-18T01:18:23;98202.34;;;10.66
12430;BMP280;6279;42.192;24.326;2023-11-18T01:20:48;98205.75;;;10.66
12430;BMP280;6279;42.192;24.326;2023-11-18T01:23:14;98204.38;;;10.70
12430;BMP280;6279;42.192;24.326;2023-11-18T01:25:39;98194.53;;;10.66
12430;BMP280;6279;42.192;24.326;2023-11-18T01:28:05;98206.16;;;10.70
12430;BMP280;6279;42.192;24.326;2023-11-18T01:30:31;98202.53;;;10.64
12430;BMP280;6279;42.192;24.326;2023-11-18T01:32:57;98207.72;;;10.64
12430;BMP280;6279;42.192;24.326;2023-11-18T01:35:28;98208.09;;;10.61
12430;BMP280;6279;42.192;24.326;2023-11-18T01:37:54;98206.88;;;10.57
12430;BMP280;6279;42.192;24.326;2023-11-18T01:40:20;98217.13;;;10.45
12430;BMP280;6279;42.192;24.326;2023-11-18T01:42:46;98220.81;;;10.36
12430;BMP280;6279;42.192;24.326;2023-11-18T01:45:12;98221.81;;;10.35
12430;BMP280;6279;42.192;24.326;2023-11-18T01:47:40;98227.75;;;10.29
12430;BMP280;6279;42.192;24.326;2023-11-18T01:50:07;98231.75;;;10.11
12430;BMP280;6279;42.192;24.326;2023-11-18T01:52:34;98231.75;;;9.97
12430;BMP280;6279;42.192;24.326;2023-11-18T01:55:01;98219.41;;;9.99
12430;BMP280;6279;42.192;24.326;2023-11-18T01:57:29;98221.31;;;9.90
12430;BMP280;6279;42.192;24.326;2023-11-18T01:59:54;98221.50;;;9.89
12430;BMP280;6279;42.192;24.326;2023-11-18T02:02:20;98227.91;;;9.79
12430;BMP280;6279;42.192;24.326;2023-11-18T02:04:48;98237.84;;;9.75
12430;BMP280;6279;42.192;24.326;2023-11-18T02:07:14;98239.19;;;9.71
12430;BMP280;6279;42.192;24.326;2023-11-18T02:09:41;98226.78;;;9.67
12430;BMP280;6279;42.192;24.326;2023-11-18T02:12:24;98229.25;;;9.61
12430;BMP280;6279;42.192;24.326;2023-11-18T02:14:52;98236.16;;;9.54
12430;BMP280;6279;42.192;24.326;2023-11-18T02:17:21;98232.03;;;9.59
12430;BMP280;6279;42.192;24.326;2023-11-18T02:19:50;98227.81;;;9.58
12430;BMP280;6279;42.192;24.326;2023-11-18T02:22:17;98226.50;;;9.48
12430;BMP280;6279;42.192;24.326;2023-11-18T02:24:43;98227.47;;;9.47
12430;BMP280;6279;42.192;24.326;2023-11-18T02:27:09;98227.47;;;9.47
12430;BMP280;6279;42.192;24.326;2023-11-18T02:29:40;98227.94;;;9.50
12430;BMP280;6279;42.192;24.326;2023-11-18T02:32:29;98231.84;;;9.46
12430;BMP280;6279;42.192;24.326;2023-11-18T02:35:23;98238.47;;;9.35
12430;BMP280;6279;42.192;24.326;2023-11-18T02:37:53;98238.19;;;9.44
12430;BMP280;6279;42.192;24.326;2023-11-18T02:40:42;98243.69;;;9.49
12430;BMP280;6279;42.192;24.326;2023-11-18T02:43:11;98252.06;;;9.37
12430;BMP280;6279;42.192;24.326;2023-11-18T02:45:37;98261.66;;;9.36
12430;BMP280;6279;42.192;24.326;2023-11-18T02:48:06;98258.50;;;9.41
12430;BMP280;6279;42.192;24.326;2023-11-18T02:50:31;98256.47;;;9.36
12430;BMP280;6279;42.192;24.326;2023-11-18T02:52:57;98247.59;;;9.31
12430;BMP280;6279;42.192;24.326;2023-11-18T02:55:23;98246.16;;;9.28
12430;BMP280;6279;42.192;24.326;2023-11-18T02:57:49;98232.28;;;9.21
12430;BMP280;6279;42.192;24.326;2023-11-18T03:00:17;98233.88;;;9.22
12430;BMP280;6279;42.192;24.326;2023-11-18T03:02:48;98239.44;;;9.19
12430;BMP280;6279;42.192;24.326;2023-11-18T03:05:14;98243.06;;;9.11
12430;BMP280;6279;42.192;24.326;2023-11-18T03:07:46;98251.41;;;9.20
12430;BMP280;6279;42.192;24.326;2023-11-18T03:10:16;98251.69;;;9.25
12430;BMP280;6279;42.192;24.326;2023-11-18T03:12:53;98262.59;;;9.21
12430;BMP280;6279;42.192;24.326;2023-11-18T03:15:21;98255.53;;;9.15
12430;BMP280;6279;42.192;24.326;2023-11-18T03:17:48;98263.50;;;9.14
12430;BMP280;6279;42.192;24.326;2023-11-18T03:20:16;98256.41;;;9.08
12430;BMP280;6279;42.192;24.326;2023-11-18T03:22:45;98244.31;;;9.00
12430;BMP280;6279;42.192;24.326;2023-11-18T03:25:14;98248.97;;;9.05
12430;BMP280;6279;42.192;24.326;2023-11-18T03:27:40;98253.16;;;9.06
12430;BMP280;6279;42.192;24.326;2023-11-18T03:30:06;98250.75;;;9.04
12430;BMP280;6279;42.192;24.326;2023-11-18T03:32:34;98245.47;;;8.98
12430;BMP280;6279;42.192;24.326;2023-11-18T03:35:00;98250.47;;;8.99
12430;BMP280;6279;42.192;24.326;2023-11-18T03:37:26;98256.28;;;9.01
12430;BMP280;6279;42.192;24.326;2023-11-18T03:39:52;98249.16;;;9.03
12430;BMP280;6279;42.192;24.326;2023-11-18T03:42:17;98246.38;;;9.05
12430;BMP280;6279;42.192;24.326;2023-11-18T03:44:43;98246.72;;;9.02
12430;BMP280;6279;42.192;24.326;2023-11-18T03:47:09;98250.56;;;9.06
12430;BMP280;6279;42.192;24.326;2023-11-18T03:49:34;98250.31;;;9.01
12430;BMP280;6279;42.192;24.326;2023-11-18T03:51:59;98233.13;;;9.00
12430;BMP280;6279;42.192;24.326;2023-11-18T03:54:25;98249.22;;;8.96
12430;BMP280;6279;42.192;24.326;2023-11-18T03:56:50;98243.88;;;8.97
12430;BMP280;6279;42.192;24.326;2023-11-18T03:59:16;98245.34;;;8.92
12430;BMP280;6279;42.192;24.326;2023-11-18T04:01:41;98258.50;;;8.90
12430;BMP280;6279;42.192;24.326;2023-11-18T04:04:07;98268.84;;;8.90
12430;BMP280;6279;42.192;24.326;2023-11-18T04:06:32;98271.06;;;8.79
12430;BMP280;6279;42.192;24.326;2023-11-18T04:08:58;98274.41;;;8.87
12430;BMP280;6279;42.192;24.326;2023-11-18T04:11:24;98283.06;;;8.80
12430;BMP280;6279;42.192;24.326;2023-11-18T04:13:49;98272.56;;;8.74
12430;BMP280;6279;42.192;24.326;2023-11-18T04:16:15;98275.78;;;8.75
12430;BMP280;6279;42.192;24.326;2023-11-18T04:18:41;98291.00;;;8.78
12430;BMP280;6279;42.192;24.326;2023-11-18T04:21:08;98290.69;;;8.74
12430;BMP280;6279;42.192;24.326;2023-11-18T04:23:37;98295.38;;;8.78
12430;BMP280;6279;42.192;24.326;2023-11-18T04:26:04;98293.63;;;8.71
12430;BMP280;6279;42.192;24.326;2023-11-18T04:28:30;98302.75;;;8.67
12430;BMP280;6279;42.192;24.326;2023-11-18T04:30:55;98302.34;;;8.77
12430;BMP280;6279;42.192;24.326;2023-11-18T04:33:21;98294.28;;;8.73
12430;BMP280;6279;42.192;24.326;2023-11-18T04:35:46;98290.69;;;8.74
12430;BMP280;6279;42.192;24.326;2023-11-18T04:38:12;98281.09;;;8.60
12430;BMP280;6279;42.192;24.326;2023-11-18T04:40:37;98276.19;;;8.65
12430;BMP280;6279;42.192;24.326;2023-11-18T04:43:04;98268.13;;;8.60
12430;BMP280;6279;42.192;24.326;2023-11-18T04:45:30;98279.16;;;8.54
12430;BMP280;6279;42.192;24.326;2023-11-18T04:47:56;98277.38;;;8.54
12430;BMP280;6279;42.192;24.326;2023-11-18T04:50:21;98286.13;;;8.53
12430;BMP280;6279;42.192;24.326;2023-11-18T04:52:47;98293.09;;;8.53
12430;BMP280;6279;42.192;24.326;2023-11-18T04:55:12;98301.75;;;8.46
12430;BMP280;6279;42.192;24.326;2023-11-18T04:57:41;98299.78;;;8.48
12430;BMP280;6279;42.192;24.326;2023-11-18T05:00:07;98310.19;;;8.40
12430;BMP280;6279;42.192;24.326;2023-11-18T05:02:39;98311.81;;;8.41
12430;BMP280;6279;42.192;24.326;2023-11-18T05:05:04;98295.13;;;8.43
12430;BMP280;6279;42.192;24.326;2023-11-18T05:07:31;98305.94;;;8.47
12430;BMP280;6279;42.192;24.326;2023-11-18T05:09:57;98308.91;;;8.36
12430;BMP280;6279;42.192;24.326;2023-11-18T05:12:22;98316.84;;;8.34
12430;BMP280;6279;42.192;24.326;2023-11-18T05:14:48;98327.22;;;8.34
12430;BMP280;6279;42.192;24.326;2023-11-18T05:17:15;98325.94;;;8.31
12430;BMP280;6279;42.192;24.326;2023-11-18T05:19:41;98335.63;;;8.36
12430;BMP280;6279;42.192;24.326;2023-11-18T05:22:08;98321.41;;;8.32
12430;BMP280;6279;42.192;24.326;2023-11-18T05:24:33;98325.66;;;8.26
12430;BMP280;6279;42.192;24.326;2023-11-18T05:26:59;98323.72;;;8.20
12430;BMP280;6279;42.192;24.326;2023-11-18T05:29:27;98311.75;;;8.19
12430;BMP280;6279;42.192;24.326;2023-11-18T05:31:53;98327.13;;;8.20
12430;BMP280;6279;42.192;24.326;2023-11-18T05:34:20;98314.69;;;8.16
12430;BMP280;6279;42.192;24.326;2023-11-18T05:36:46;98332.22;;;8.06
12430;BMP280;6279;42.192;24.326;2023-11-18T05:39:12;98333.19;;;8.05
12430;BMP280;6279;42.192;24.326;2023-11-18T05:41:41;98328.97;;;8.04
12430;BMP280;6279;42.192;24.326;2023-11-18T05:44:10;98337.06;;;8.09
12430;BMP280;6279;42.192;24.326;2023-11-18T05:46:42;98346.44;;;8.10
12430;BMP280;6279;42.192;24.326;2023-11-18T05:49:11;98344.81;;;8.09
12430;BMP280;6279;42.192;24.326;2023-11-18T05:51:39;98345.63;;;8.10
12430;BMP280;6279;42.192;24.326;2023-11-18T05:54:06;98354.72;;;8.06
12430;BMP280;6279;42.192;24.326;2023-11-18T05:56:32;98348.72;;;8.05
12430;BMP280;6279;42.192;24.326;2023-11-18T05:58:58;98368.75;;;8.11
12430;BMP280;6279;42.192;24.326;2023-11-18T06:01:23;98364.56;;;8.10
12430;BMP280;6279;42.192;24.326;2023-11-18T06:03:49;98369.56;;;8.04
12430;BMP280;6279;42.192;24.326;2023-11-18T06:06:16;98370.38;;;8.04
12430;BMP280;6279;42.192;24.326;2023-11-18T06:08:42;98373.63;;;8.06
12430;BMP280;6279;42.192;24.326;2023-11-18T06:11:13;98390.44;;;8.10
12430;BMP280;6279;42.192;24.326;2023-11-18T06:16:25;98409.53;;;8.01
12430;BMP280;6279;42.192;24.326;2023-11-18T06:18:52;98421.22;;;8.05
12430;BMP280;6279;42.192;24.326;2023-11-18T06:21:20;98424.75;;;8.12
12430;BMP280;6279;42.192;24.326;2023-11-18T06:23:47;98401.16;;;8.07
12430;BMP280;6279;42.192;24.326;2023-11-18T06:26:13;98397.91;;;8.05
12430;BMP280;6279;42.192;24.326;2023-11-18T06:28:40;98395.78;;;8.01
12430;BMP280;6279;42.192;24.326;2023-11-18T06:31:06;98405.31;;;8.00
12430;BMP280;6279;42.192;24.326;2023-11-18T06:33:44;98412.78;;;7.95
12430;BMP280;6279;42.192;24.326;2023-11-18T06:38:38;98416.97;;;8.04
12430;BMP280;6279;42.192;24.326;2023-11-18T06:41:03;98431.41;;;8.07
12430;BMP280;6279;42.192;24.326;2023-11-18T06:43:31;98426.38;;;8.13
12430;BMP280;6279;42.192;24.326;2023-11-18T06:46:14;98419.41;;;8.13
12430;BMP280;6279;42.192;24.326;2023-11-18T06:48:40;98393.34;;;8.15
12430;BMP280;6279;42.192;24.326;2023-11-18T06:51:06;98411.78;;;8.20
12430;BMP280;6279;42.192;24.326;2023-11-18T06:53:33;98412.41;;;8.22
12430;BMP280;6279;42.192;24.326;2023-11-18T06:55:59;98409.81;;;8.22
12430;BMP280;6279;42.192;24.326;2023-11-18T06:58:24;98425.34;;;8.30
12430;BMP280;6279;42.192;24.326;2023-11-18T07:00:49;98421.94;;;8.29
12430;BMP280;6279;42.192;24.326;2023-11-18T07:03:15;98430.81;;;8.34
12430;BMP280;6279;42.192;24.326;2023-11-18T07:05:41;98433.56;;;8.41
12430;BMP280;6279;42.192;24.326;2023-11-18T07:08:06;98436.63;;;8.44
12430;BMP280;6279;42.192;24.326;2023-11-18T07:10:33;98423.63;;;8.52
12430;BMP280;6279;42.192;24.326;2023-11-18T07:13:00;98407.22;;;8.67
12430;BMP280;6279;42.192;24.326;2023-11-18T07:15:25;98417.78;;;8.58
12430;BMP280;6279;42.192;24.326;2023-11-18T07:17:50;98396.72;;;8.61
12430;BMP280;6279;42.192;24.326;2023-11-18T07:20:16;98391.50;;;8.69
12430;BMP280;6279;42.192;24.326;2023-11-18T07:22:42;98379.81;;;8.73
12430;BMP280;6279;42.192;24.326;2023-11-18T07:25:08;98394.53;;;8.72
12430;BMP280;6279;42.192;24.326;2023-11-18T07:27:35;98390.44;;;8.85
12430;BMP280;6279;42.192;24.326;2023-11-18T07:30:01;98384.22;;;8.94
12430;BMP280;6279;42.192;24.326;2023-11-18T07:32:31;98367.44;;;9.04
12430;BMP280;6279;42.192;24.326;2023-11-18T07:34:57;98375.94;;;9.20
12430;BMP280;6279;42.192;24.326;2023-11-18T07:37:23;98373.25;;;9.28
12430;BMP280;6279;42.192;24.326;2023-11-18T07:39:48;98368.56;;;9.46
12430;BMP280;6279;42.192;24.326;2023-11-18T07:42:14;98382.75;;;9.58
12430;BMP280;6279;42.192;24.326;2023-11-18T07:44:40;98377.31;;;9.81
12430;BMP280;6279;42.192;24.326;2023-11-18T07:47:06;98372.03;;;10.25
12430;BMP280;6279;42.192;24.326;2023-11-18T07:49:33;98357.94;;;10.34
12430;BMP280;6279;42.192;24.326;2023-11-18T07:51:59;98358.66;;;10.28
12430;BMP280;6279;42.192;24.326;2023-11-18T07:54:24;98358.94;;;10.19
12430;BMP280;6279;42.192;24.326;2023-11-18T07:56:50;98362.69;;;9.88
12430;BMP280;6279;42.192;24.326;2023-11-18T07:59:16;98360.13;;;9.80
12430;BMP280;6279;42.192;24.326;2023-11-18T08:01:43;98350.75;;;9.79
12430;BMP280;6279;42.192;24.326;2023-11-18T08:04:12;98377.19;;;9.61
12430;BMP280;6279;42.192;24.326;2023-11-18T08:06:41;98357.88;;;9.63
12430;BMP280;6279;42.192;24.326;2023-11-18T08:09:09;98352.97;;;9.68
12430;BMP280;6279;42.192;24.326;2023-11-18T08:11:40;98369.53;;;9.67
12430;BMP280;6279;42.192;24.326;2023-11-18T08:14:09;98358.69;;;9.63
12430;BMP280;6279;42.192;24.326;2023-11-18T08:16:34;98366.94;;;10.03
12430;BMP280;6279;42.192;24.326;2023-11-18T08:19:01;98355.41;;;11.44
12430;BMP280;6279;42.192;24.326;2023-11-18T08:21:33;98345.59;;;12.40
12430;BMP280;6279;42.192;24.326;2023-11-18T08:23:59;98346.22;;;12.88
12430;BMP280;6279;42.192;24.326;2023-11-18T08:26:25;98354.97;;;13.77
12430;BMP280;6279;42.192;24.326;2023-11-18T08:28:51;98344.91;;;15.41
12430;BMP280;6279;42.192;24.326;2023-11-18T08:31:17;98358.09;;;16.42
12430;BMP280;6279;42.192;24.326;2023-11-18T08:33:43;98358.75;;;16.20
12430;BMP280;6279;42.192;24.326;2023-11-18T08:36:08;98352.63;;;17.88
12430;BMP280;6279;42.192;24.326;2023-11-18T08:38:34;98347.75;;;18.02
12430;BMP280;6279;42.192;24.326;2023-11-18T08:41:01;98374.03;;;18.81
12430;BMP280;6279;42.192;24.326;2023-11-18T08:43:26;98375.63;;;15.82
12430;BMP280;6279;42.192;24.326;2023-11-18T08:45:54;98375.94;;;14.58
12430;BMP280;6279;42.192;24.326;2023-11-18T08:48:21;98385.50;;;13.45
12430;BMP280;6279;42.192;24.326;2023-11-18T08:50:48;98395.91;;;13.32
12430;BMP280;6279;42.192;24.326;2023-11-18T08:53:13;98384.06;;;13.30
12430;BMP280;6279;42.192;24.326;2023-11-18T08:55:44;98390.31;;;13.67
12430;BMP280;6279;42.192;24.326;2023-11-18T08:58:19;98384.69;;;13.76
12430;BMP280;6279;42.192;24.326;2023-11-18T09:00:53;98394.75;;;14.11
12430;BMP280;6279;42.192;24.326;2023-11-18T09:03:24;98359.63;;;16.85
12430;BMP280;6279;42.192;24.326;2023-11-18T09:05:51;98345.16;;;19.57
12430;BMP280;6279;42.192;24.326;2023-11-18T09:10:50;98341.81;;;22.64
12430;BMP280;6279;42.192;24.326;2023-11-18T09:13:22;98331.53;;;23.42
12430;BMP280;6279;42.192;24.326;2023-11-18T09:15:54;98338.66;;;23.42
12430;BMP280;6279;42.192;24.326;2023-11-18T09:18:21;98356.00;;;19.72
12430;BMP280;6279;42.192;24.326;2023-11-18T09:20:47;98358.50;;;16.92
12430;BMP280;6279;42.192;24.326;2023-11-18T09:23:13;98347.25;;;15.49
12430;BMP280;6279;42.192;24.326;2023-11-18T09:25:41;98339.09;;;14.96
12430;BMP280;6279;42.192;24.326;2023-11-18T09:28:14;98331.25;;;15.81
12430;BMP280;6279;42.192;24.326;2023-11-18T09:30:42;98324.41;;;16.04
12430;BMP280;6279;42.192;24.326;2023-11-18T09:33:24;98313.16;;;16.85
12430;BMP280;6279;42.192;24.326;2023-11-18T09:40:54;98309.50;;;16.86
12430;BMP280;6279;42.192;24.326;2023-11-18T09:43:20;98289.84;;;17.80
12430;BMP280;6279;42.192;24.326;2023-11-18T09:45:56;98307.59;;;18.29
12430;BMP280;6279;42.192;24.326;2023-11-18T09:48:22;98296.84;;;18.58
12430;BMP280;6279;42.192;24.326;2023-11-18T09:50:54;98297.75;;;17.80
12430;BMP280;6279;42.192;24.326;2023-11-18T09:53:22;98305.34;;;18.60
12430;BMP280;6279;42.192;24.326;2023-11-18T09:56:07;98285.72;;;18.79
12430;BMP280;6279;42.192;24.326;2023-11-18T09:58:40;98283.28;;;19.16
12430;BMP280;6279;42.192;24.326;2023-11-18T10:01:10;98289.97;;;17.62
12430;BMP280;6279;42.192;24.326;2023-11-18T10:03:40;98305.53;;;16.95
12430;BMP280;6279;42.192;24.326;2023-11-18T10:06:08;98307.66;;;16.40
12430;BMP280;6279;42.192;24.326;2023-11-18T10:08:35;98303.97;;;16.12
12430;BMP280;6279;42.192;24.326;2023-11-18T10:11:04;98309.59;;;15.92
12430;BMP280;6279;42.192;24.326;2023-11-18T10:13:34;98303.53;;;15.74
12430;BMP280;6279;42.192;24.326;2023-11-18T10:16:01;98324.47;;;14.40
12430;BMP280;6279;42.192;24.326;2023-11-18T10:18:27;98331.44;;;13.64
12430;BMP280;6279;42.192;24.326;2023-11-18T10:20:53;98320.78;;;13.15
12430;BMP280;6279;42.192;24.326;2023-11-18T10:23:21;98332.84;;;12.64
12430;BMP280;6279;42.192;24.326;2023-11-18T10:25:49;98324.94;;;12.38
12430;BMP280;6279;42.192;24.326;2023-11-18T10:28:28;98325.47;;;12.27
12430;BMP280;6279;42.192;24.326;2023-11-18T10:30:57;98331.19;;;12.04
12430;BMP280;6279;42.192;24.326;2023-11-18T10:33:27;98326.78;;;11.78
12430;BMP280;6279;42.192;24.326;2023-11-18T10:35:59;98336.56;;;11.69
12430;BMP280;6279;42.192;24.326;2023-11-18T10:38:29;98325.09;;;11.64
12430;BMP280;6279;42.192;24.326;2023-11-18T10:40:57;98343.66;;;10.93
12430;BMP280;6279;42.192;24.326;2023-11-18T10:43:22;98350.66;;;10.93
12430;BMP280;6279;42.192;24.326;2023-11-18T10:46:07;98342.19;;;10.70
12430;BMP280;6279;42.192;24.326;2023-11-18T10:48:47;98347.56;;;10.69
12430;BMP280;6279;42.192;24.326;2023-11-18T10:51:14;98349.84;;;10.57
12430;BMP280;6279;42.192;24.326;2023-11-18T10:53:44;98336.50;;;10.60
12430;BMP280;6279;42.192;24.326;2023-11-18T10:56:29;98342.06;;;10.57
12430;BMP280;6279;42.192;24.326;2023-11-18T10:59:05;98346.78;;;10.54
12430;BMP280;6279;42.192;24.326;2023-11-18T11:01:37;98344.56;;;10.37
12430;BMP280;6279;42.192;24.326;2023-11-18T11:04:12;98347.28;;;10.29
12430;BMP280;6279;42.192;24.326;2023-11-18T11:06:42;98334.28;;;10.29
12430;BMP280;6279;42.192;24.326;2023-11-18T11:09:08;98347.84;;;10.10
12430;BMP280;6279;42.192;24.326;2023-11-18T11:11:48;98347.38;;;10.07
12430;BMP280;6279;42.192;24.326;2023-11-18T11:14:14;98339.50;;;10.15
12430;BMP280;6279;42.192;24.326;2023-11-18T11:16:56;98342.72;;;10.31
12430;BMP280;6279;42.192;24.326;2023-11-18T11:22:11;98325.16;;;10.19
12430;BMP280;6279;42.192;24.326;2023-11-18T11:27:59;98347.22;;;10.23
12430;BMP280;6279;42.192;24.326;2023-11-18T11:30:42;98329.09;;;10.43
12430;BMP280;6279;42.192;24.326;2023-11-18T11:33:26;98332.78;;;10.20
12430;BMP280;6279;42.192;24.326;2023-11-18T11:35:55;98356.16;;;10.06
12430;BMP280;6279;42.192;24.326;2023-11-18T11:38:24;98334.41;;;10.07
12430;BMP280;6279;42.192;24.326;2023-11-18T11:40:53;98339.34;;;10.02
12430;BMP280;6279;42.192;24.326;2023-11-18T11:43:20;98339.22;;;9.96
12430;BMP280;6279;42.192;24.326;2023-11-18T11:45:53;98332.22;;;9.82
12430;BMP280;6279;42.192;24.326;2023-11-18T11:48:21;98349.41;;;9.83
12430;BMP280;6279;42.192;24.326;2023-11-18T11:51:07;98343.53;;;9.89
12430;BMP280;6279;42.192;24.326;2023-11-18T11:53:42;98313.38;;;9.88
12430;BMP280;6279;42.192;24.326;2023-11-18T11:56:11;98325.97;;;9.91
12430;BMP280;6279;42.192;24.326;2023-11-18T11:58:41;98319.06;;;9.98
12430;BMP280;6279;42.192;24.326;2023-11-18T12:01:16;98331.69;;;10.15
12430;BMP280;6279;42.192;24.326;2023-11-18T12:03:43;98335.47;;;10.12
12430;BMP280;6279;42.192;24.326;2023-11-18T12:06:17;98334.41;;;9.93
12430;BMP280;6279;42.192;24.326;2023-11-18T12:08:46;98341.81;;;9.96
12430;BMP280;6279;42.192;24.326;2023-11-18T12:11:13;98348.19;;;10.07
12430;BMP280;6279;42.192;24.326;2023-11-18T12:13:59;98332.44;;;10.09
12430;BMP280;6279;42.192;24.326;2023-11-18T12:17:06;98347.66;;;9.84
12430;BMP280;6279;42.192;24.326;2023-11-18T12:19:37;98360.66;;;9.84
12430;BMP280;6279;42.192;24.326;2023-11-18T12:22:22;98347.47;;;9.85
12430;BMP280;6279;42.192;24.326;2023-11-18T12:35:30;98359.16;;;9.67
12430;BMP280;6279;42.192;24.326;2023-11-18T12:41:37;98362.88;;;9.64
12430;BMP280;6279;42.192;24.326;2023-11-18T12:47:22;98355.19;;;9.93
12430;BMP280;6279;42.192;24.326;2023-11-18T12:49:44;98358.75;;;9.92
12430;BMP280;6279;42.192;24.326;2023-11-18T12:52:13;98366.75;;;10.05
12430;BMP280;6279;42.192;24.326;2023-11-18T12:54:40;98354.28;;;10.14
12430;BMP280;6279;42.192;24.326;2023-11-18T12:57:10;98356.97;;;10.07
12430;BMP280;6279;42.192;24.326;2023-11-18T12:59:36;98348.94;;;10.02
12430;BMP280;6279;42.192;24.326;2023-11-18T13:02:11;98350.78;;;10.22
12430;BMP280;6279;42.192;24.326;2023-11-18T13:04:47;98340.31;;;10.01
12430;BMP280;6279;42.192;24.326;2023-11-18T13:07:17;98347.28;;;10.01
12430;BMP280;6279;42.192;24.326;2023-11-18T13:09:43;98356.34;;;9.90
12430;BMP280;6279;42.192;24.326;2023-11-18T13:12:12;98353.16;;;9.81
12430;BMP280;6279;42.192;24.326;2023-11-18T13:14:43;98353.06;;;9.74
12430;BMP280;6279;42.192;24.326;2023-11-18T13:17:10;98353.94;;;9.89
12430;BMP280;6279;42.192;24.326;2023-11-18T13:19:37;98357.00;;;9.70
12430;BMP280;6279;42.192;24.326;2023-11-18T13:22:13;98361.94;;;9.65
12430;BMP280;6279;42.192;24.326;2023-11-18T13:24:41;98356.63;;;9.59
12430;BMP280;6279;42.192;24.326;2023-11-18T13:27:12;98382.31;;;9.54
12430;BMP280;6279;42.192;24.326;2023-11-18T13:29:39;98380.97;;;9.58
12430;BMP280;6279;42.192;24.326;2023-11-18T13:32:11;98381.06;;;9.64
12430;BMP280;6279;42.192;24.326;2023-11-18T13:34:37;98385.75;;;9.69
12430;BMP280;6279;42.192;24.326;2023-11-18T13:37:09;98397.19;;;9.74
12430;BMP280;6279;42.192;24.326;2023-11-18T13:39:36;98397.28;;;9.88
12430;BMP280;6279;42.192;24.326;2023-11-18T13:42:26;98394.69;;;9.66
12430;BMP280;6279;42.192;24.326;2023-11-18T13:44:53;98392.06;;;9.52
12430;BMP280;6279;42.192;24.326;2023-11-18T13:47:26;98380.06;;;9.51
12430;BMP280;6279;42.192;24.326;2023-11-18T13:49:57;98396.22;;;9.39
12430;BMP280;6279;42.192;24.326;2023-11-18T13:52:24;98385.66;;;9.41
12430;BMP280;6279;42.192;24.326;2023-11-18T13:54:51;98405.06;;;9.30
12430;BMP280;6279;42.192;24.326;2023-11-18T13:57:21;98412.94;;;9.37
12430;BMP280;6279;42.192;24.326;2023-11-18T13:59:51;98409.13;;;9.25
12430;BMP280;6279;42.192;24.326;2023-11-18T14:02:16;98405.09;;;9.22
12430;BMP280;6279;42.192;24.326;2023-11-18T14:04:42;98405.00;;;9.16
12430;BMP280;6279;42.192;24.326;2023-11-18T14:07:09;98386.19;;;9.14
12430;BMP280;6279;42.192;24.326;2023-11-18T14:09:35;98391.13;;;9.01
12430;BMP280;6279;42.192;24.326;2023-11-18T14:12:05;98412.09;;;8.92
12430;BMP280;6279;42.192;24.326;2023-11-18T14:14:31;98416.66;;;8.90
12430;BMP280;6279;42.192;24.326;2023-11-18T14:16:57;98400.44;;;8.88
12430;BMP280;6279;42.192;24.326;2023-11-18T14:19:30;98418.19;;;8.77
12430;BMP280;6279;42.192;24.326;2023-11-18T14:21:56;98416.41;;;8.77
12430;BMP280;6279;42.192;24.326;2023-11-18T14:24:21;98411.50;;;8.82
12430;BMP280;6279;42.192;24.326;2023-11-18T14:26:53;98407.50;;;8.72
12430;BMP280;6279;42.192;24.326;2023-11-18T14:29:19;98397.81;;;8.66
12430;BMP280;6279;42.192;24.326;2023-11-18T14:31:45;98399.97;;;8.63
12430;BMP280;6279;42.192;24.326;2023-11-18T14:34:11;98406.13;;;8.54
12430;BMP280;6279;42.192;24.326;2023-11-18T14:36:37;98413.63;;;8.49
12430;BMP280;6279;42.192;24.326;2023-11-18T14:39:02;98408.47;;;8.41
12430;BMP280;6279;42.192;24.326;2023-11-18T14:41:29;98388.88;;;8.39
12430;BMP280;6279;42.192;24.326;2023-11-18T14:43:57;98414.66;;;8.32
12430;BMP280;6279;42.192;24.326;2023-11-18T14:46:23;98424.38;;;8.31
12430;BMP280;6279;42.192;24.326;2023-11-18T14:48:48;98412.75;;;8.27
12430;BMP280;6279;42.192;24.326;2023-11-18T14:51:14;98409.19;;;8.20
12430;BMP280;6279;42.192;24.326;2023-11-18T14:53:41;98428.78;;;8.14
12430;BMP280;6279;42.192;24.326;2023-11-18T14:56:08;98413.25;;;8.14
12430;BMP280;6279;42.192;24.326;2023-11-18T14:58:34;98406.97;;;8.09